createdAt,value
2023-02-26T00:06:11.921Z,-0.81
2023-02-26T00:08:58.231Z,-0.86
2023-02-26T00:11:44.590Z,-0.85
2023-02-26T00:14:50.813Z,-0.91
2023-02-26T00:17:57.822Z,-0.91
2023-02-26T00:20:43.973Z,-0.91
2023-02-26T00:23:29.904Z,-0.96
2023-02-26T00:26:15.858Z,-0.94
2023-02-26T00:29:01.812Z,-0.92
2023-02-26T00:31:47.813Z,-0.89
2023-02-26T00:34:33.733Z,-0.98
2023-02-26T00:37:19.821Z,-0.98
2023-02-26T00:40:06.227Z,-0.92
2023-02-26T00:42:52.069Z,-0.95
2023-02-26T00:45:38.070Z,-1.00
2023-02-26T00:48:23.869Z,-0.90
2023-02-26T00:51:09.889Z,-1.03
2023-02-26T00:53:55.862Z,-1.15
2023-02-26T00:56:41.674Z,-1.23
2023-02-26T00:59:27.554Z,-1.14
2023-02-26T01:02:13.592Z,-1.24
2023-02-26T01:05:01.336Z,-1.23
2023-02-26T01:07:47.374Z,-1.29
2023-02-26T01:10:33.325Z,-1.26
2023-02-26T01:13:19.105Z,-1.30
2023-02-26T01:16:05.143Z,-1.35
2023-02-26T01:18:50.970Z,-1.39
2023-02-26T01:21:36.786Z,-1.25
2023-02-26T01:24:22.649Z,-1.30
2023-02-26T01:27:08.251Z,-1.52
2023-02-26T01:29:54.172Z,-1.47
2023-02-26T01:32:40.045Z,-1.50
2023-02-26T01:35:25.909Z,-1.50
2023-02-26T01:38:12.049Z,-1.71
2023-02-26T01:40:57.946Z,-1.66
2023-02-26T01:43:43.874Z,-1.62
2023-02-26T01:46:30.295Z,-1.74
2023-02-26T01:49:16.434Z,-1.73
2023-02-26T01:52:02.327Z,-1.76
2023-02-26T01:54:48.255Z,-1.75
2023-02-26T01:57:34.228Z,-1.68
2023-02-26T02:00:20.084Z,-1.75
2023-02-26T02:03:06.002Z,-1.80
2023-02-26T02:05:51.835Z,-1.67
2023-02-26T02:08:37.971Z,-1.78
2023-02-26T02:11:23.814Z,-1.85
2023-02-26T02:14:09.773Z,-1.80
2023-02-26T02:16:55.622Z,-1.91
2023-02-26T02:19:41.544Z,-1.98
2023-02-26T02:22:27.346Z,-2.01
2023-02-26T02:25:13.143Z,-2.13
2023-02-26T02:27:59.130Z,-2.17
2023-02-26T02:30:45.100Z,-2.20
2023-02-26T02:33:30.977Z,-2.25
2023-02-26T02:36:16.874Z,-2.29
2023-02-26T02:39:02.665Z,-2.30
2023-02-26T02:41:48.486Z,-2.19
2023-02-26T02:44:34.356Z,-2.37
2023-02-26T02:47:20.240Z,-2.31
2023-02-26T02:50:06.118Z,-2.37
2023-02-26T02:52:51.948Z,-2.27
2023-02-26T02:55:37.769Z,-2.26
2023-02-26T02:58:23.818Z,-2.21
2023-02-26T03:01:09.647Z,-2.17
2023-02-26T03:03:55.617Z,-2.28
2023-02-26T03:06:41.600Z,-2.27
2023-02-26T03:09:27.325Z,-2.27
2023-02-26T03:12:13.209Z,-2.36
2023-02-26T03:14:59.029Z,-2.39
2023-02-26T03:17:44.868Z,-2.42
2023-02-26T03:20:30.810Z,-2.51
2023-02-26T03:23:16.635Z,-2.51
2023-02-26T03:26:02.427Z,-2.47
2023-02-26T03:28:48.370Z,-2.49
2023-02-26T03:31:34.335Z,-2.54
2023-02-26T03:34:20.273Z,-2.62
2023-02-26T03:37:05.975Z,-2.67
2023-02-26T03:39:51.830Z,-2.71
2023-02-26T03:42:37.820Z,-2.74
2023-02-26T03:45:23.658Z,-2.80
2023-02-26T03:48:09.672Z,-2.80
2023-02-26T03:50:55.652Z,-2.82
2023-02-26T03:53:43.490Z,-2.74
2023-02-26T03:56:29.335Z,-2.81
2023-02-26T03:59:15.071Z,-2.77
2023-02-26T04:02:00.954Z,-2.78
2023-02-26T04:04:46.927Z,-2.82
2023-02-26T04:07:32.794Z,-2.89
2023-02-26T04:10:18.744Z,-2.88
2023-02-26T04:13:04.704Z,-2.89
2023-02-26T04:15:50.591Z,-2.85
2023-02-26T04:18:36.536Z,-2.93
2023-02-26T04:21:22.423Z,-2.86
2023-02-26T04:24:08.402Z,-2.82
2023-02-26T04:26:54.283Z,-2.80
2023-02-26T04:29:40.111Z,-2.89
2023-02-26T04:32:26.044Z,-2.83
2023-02-26T04:35:12.018Z,-2.82
2023-02-26T04:37:57.944Z,-2.90
2023-02-26T04:40:43.867Z,-2.87
2023-02-26T04:43:29.625Z,-2.96
2023-02-26T04:46:15.621Z,-2.85
2023-02-26T04:49:01.412Z,-2.87
2023-02-26T04:51:47.326Z,-2.82
2023-02-26T04:54:33.186Z,-2.90
2023-02-26T04:57:18.974Z,-2.88
2023-02-26T05:00:04.856Z,-3.05
2023-02-26T05:02:50.822Z,-3.12
2023-02-26T05:05:36.625Z,-2.98
2023-02-26T05:08:22.596Z,-3.22
2023-02-26T05:11:08.487Z,-3.05
2023-02-26T05:13:54.328Z,-3.22
2023-02-26T05:16:40.104Z,-3.32
2023-02-26T05:19:25.844Z,-3.30
2023-02-26T05:22:11.725Z,-3.52
2023-02-26T05:24:57.614Z,-3.40
2023-02-26T05:27:43.456Z,-3.51
2023-02-26T05:30:29.342Z,-3.55
2023-02-26T05:33:15.226Z,-3.74
2023-02-26T05:36:01.201Z,-3.79
2023-02-26T05:38:47.057Z,-3.83
2023-02-26T05:41:32.947Z,-3.82
2023-02-26T05:44:20.787Z,-3.93
2023-02-26T05:47:06.650Z,-4.00
2023-02-26T05:49:52.571Z,-4.06
2023-02-26T05:52:38.859Z,-4.07
2023-02-26T05:55:24.825Z,-4.06
2023-02-26T05:58:12.645Z,-4.08
2023-02-26T06:00:58.578Z,-4.10
2023-02-26T06:03:44.421Z,-4.10
2023-02-26T06:06:30.292Z,-4.14
2023-02-26T06:09:16.074Z,-4.22
2023-02-26T06:12:01.956Z,-4.20
2023-02-26T06:14:47.817Z,-4.12
2023-02-26T06:17:33.926Z,-4.21
2023-02-26T06:20:19.854Z,-4.23
2023-02-26T06:23:05.721Z,-4.29
2023-02-26T06:25:51.585Z,-4.31
2023-02-26T06:28:37.479Z,-4.25
2023-02-26T06:31:23.399Z,-4.33
2023-02-26T06:34:09.159Z,-4.45
2023-02-26T06:36:55.184Z,-4.37
2023-02-26T06:39:41.212Z,-4.45
2023-02-26T06:42:27.061Z,-4.54
2023-02-26T06:45:13.059Z,-4.57
2023-02-26T06:47:58.935Z,-4.48
2023-02-26T06:50:44.896Z,-4.45
2023-02-26T06:53:30.894Z,-4.51
2023-02-26T06:56:16.798Z,-4.50
2023-02-26T06:59:02.710Z,-4.58
2023-02-26T07:01:48.588Z,-4.54
2023-02-26T07:04:34.505Z,-4.52
2023-02-26T07:07:20.376Z,-4.46
2023-02-26T07:10:06.346Z,-4.55
2023-02-26T07:12:52.104Z,-4.55
2023-02-26T07:15:38.017Z,-4.59
2023-02-26T07:18:23.813Z,-4.54
2023-02-26T07:21:09.704Z,-4.41
2023-02-26T07:23:55.425Z,-4.56
2023-02-26T07:26:41.333Z,-4.51
2023-02-26T07:29:27.408Z,-4.48
2023-02-26T07:32:13.223Z,-4.36
2023-02-26T07:34:59.248Z,-4.37
2023-02-26T07:37:47.270Z,-4.36
2023-02-26T07:40:33.068Z,-4.23
2023-02-26T07:43:18.990Z,-4.32
2023-02-26T07:46:04.995Z,-4.21
2023-02-26T07:48:50.921Z,-4.38
2023-02-26T07:51:36.841Z,-4.53
2023-02-26T07:54:22.726Z,-4.28
2023-02-26T07:57:08.678Z,-4.32
2023-02-26T07:59:54.547Z,-4.17
2023-02-26T08:02:40.476Z,-4.41
2023-02-26T08:05:30.137Z,-4.20
2023-02-26T08:08:16.404Z,-4.20
2023-02-26T08:11:02.245Z,-4.21
2023-02-26T08:13:48.150Z,-4.07
2023-02-26T08:16:33.958Z,-3.97
2023-02-26T08:19:19.854Z,-4.08
2023-02-26T08:22:05.782Z,-3.77
2023-02-26T08:24:51.648Z,-4.23
2023-02-26T08:27:37.528Z,-4.05
2023-02-26T08:30:23.528Z,-3.99
2023-02-26T08:33:09.295Z,-4.30
2023-02-26T08:35:55.095Z,-4.25
2023-02-26T08:38:41.050Z,-4.25
2023-02-26T08:41:27.191Z,-4.36
2023-02-26T08:44:13.187Z,-4.29
2023-02-26T08:46:59.175Z,-3.81
2023-02-26T08:49:45.178Z,-4.01
2023-02-26T08:52:31.191Z,-4.12
2023-02-26T08:55:16.942Z,-4.25
2023-02-26T08:58:02.865Z,-4.37
2023-02-26T09:00:48.761Z,-4.13
2023-02-26T09:03:34.579Z,-4.09
2023-02-26T09:06:22.524Z,-4.20
2023-02-26T09:09:08.430Z,-4.21
2023-02-26T09:11:54.398Z,-4.26
2023-02-26T09:14:40.347Z,-4.34
2023-02-26T09:17:26.063Z,-4.44
2023-02-26T09:20:12.040Z,-4.08
2023-02-26T09:22:58.101Z,-3.89
2023-02-26T09:25:43.862Z,-3.77
2023-02-26T09:28:32.057Z,-4.03
2023-02-26T09:31:18.532Z,-3.92
2023-02-26T09:34:04.648Z,-3.52
2023-02-26T09:36:50.695Z,-3.35
2023-02-26T09:39:38.775Z,-3.52
2023-02-26T09:42:24.692Z,-3.87
2023-02-26T09:45:10.593Z,-3.86
2023-02-26T09:47:56.380Z,-4.07
2023-02-26T09:50:42.367Z,-3.36
2023-02-26T09:53:28.309Z,-3.61
2023-02-26T09:56:14.282Z,-3.54
2023-02-26T09:59:00.130Z,-3.54
2023-02-26T10:01:46.044Z,-3.64
2023-02-26T10:04:31.956Z,-3.42
2023-02-26T10:07:18.029Z,-3.70
2023-02-26T10:10:03.935Z,-3.80
2023-02-26T10:12:49.865Z,-3.81
2023-02-26T10:15:35.787Z,-3.59
2023-02-26T10:18:21.766Z,-3.81
2023-02-26T10:21:07.717Z,-3.70
2023-02-26T10:23:53.801Z,-3.77
2023-02-26T10:26:39.742Z,-3.71
2023-02-26T10:29:25.631Z,-3.53
2023-02-26T10:32:11.699Z,-3.59
2023-02-26T10:34:57.909Z,-3.49
2023-02-26T10:37:43.964Z,-3.48
2023-02-26T10:40:29.853Z,-3.71
2023-02-26T10:43:15.835Z,-3.47
2023-02-26T10:46:01.809Z,-3.62
2023-02-26T10:48:47.574Z,-3.56
2023-02-26T10:51:33.554Z,-3.60
2023-02-26T10:54:19.490Z,-3.80
2023-02-26T10:57:05.362Z,-3.55
2023-02-26T10:59:51.258Z,-3.63
2023-02-26T11:02:37.183Z,-3.40
2023-02-26T11:05:23.157Z,-3.16
2023-02-26T11:08:09.022Z,-3.21
2023-02-26T11:10:54.963Z,-2.87
2023-02-26T11:13:41.119Z,-2.92
2023-02-26T11:16:26.867Z,-3.09
2023-02-26T11:19:12.855Z,-3.40
2023-02-26T11:21:58.866Z,-3.36
2023-02-26T11:24:46.709Z,-3.38
2023-02-26T11:27:34.689Z,-3.56
2023-02-26T11:30:20.551Z,-3.25
2023-02-26T11:33:06.369Z,-3.33
2023-02-26T11:35:52.368Z,-3.28
2023-02-26T11:38:38.337Z,-3.46
2023-02-26T11:41:24.439Z,-3.11
2023-02-26T11:44:10.534Z,-3.30
2023-02-26T11:46:56.501Z,-3.33
2023-02-26T11:49:42.414Z,-3.14
2023-02-26T11:52:28.331Z,-3.42
2023-02-26T11:55:14.266Z,-3.60
2023-02-26T11:58:00.272Z,-3.64
2023-02-26T12:00:46.211Z,-3.65
2023-02-26T12:03:32.272Z,-3.60
2023-02-26T12:06:18.388Z,-3.52
2023-02-26T12:09:04.245Z,-3.35
2023-02-26T12:11:50.191Z,-3.56
2023-02-26T12:14:36.182Z,-3.44
2023-02-26T12:17:22.038Z,-3.46
2023-02-26T12:20:07.979Z,-3.24
2023-02-26T12:22:53.994Z,-2.99
2023-02-26T12:25:39.862Z,-3.35
2023-02-26T12:28:25.882Z,-3.26
2023-02-26T12:31:11.744Z,-3.23
2023-02-26T12:33:57.679Z,-3.34
2023-02-26T12:36:48.929Z,-3.30
2023-02-26T12:39:35.894Z,-3.36
2023-02-26T12:42:21.641Z,-3.54
2023-02-26T12:45:07.681Z,-3.64
2023-02-26T12:47:53.606Z,-3.47
2023-02-26T12:50:39.567Z,-3.33
2023-02-26T12:53:25.467Z,-3.62
2023-02-26T12:56:11.202Z,-3.38
2023-02-26T12:58:57.124Z,-3.54
2023-02-26T13:01:55.973Z,-3.57
2023-02-26T13:04:45.774Z,-3.57
2023-02-26T13:07:31.787Z,-3.62
2023-02-26T13:10:17.717Z,-3.32
2023-02-26T13:13:03.531Z,-3.42
2023-02-26T13:15:49.351Z,-3.16
2023-02-26T13:18:35.227Z,-3.48
2023-02-26T13:21:21.210Z,-3.23
2023-02-26T13:24:07.063Z,-3.32
2023-02-26T13:26:52.931Z,-3.23
2023-02-26T13:29:38.861Z,-3.02
2023-02-26T13:32:24.911Z,-3.08
2023-02-26T13:35:11.101Z,-3.21
2023-02-26T13:37:57.129Z,-3.26
2023-02-26T13:40:43.026Z,-3.33
2023-02-26T13:43:29.016Z,-3.43
2023-02-26T13:46:14.909Z,-3.32
2023-02-26T13:49:00.968Z,-3.35
2023-02-26T13:51:46.994Z,-3.34
2023-02-26T13:54:32.978Z,-3.21
2023-02-26T13:57:18.802Z,-3.21
2023-02-26T14:00:04.670Z,-3.33
2023-02-26T14:02:50.531Z,-3.31
2023-02-26T14:05:36.578Z,-3.21
2023-02-26T14:08:22.587Z,-3.26
2023-02-26T14:11:08.535Z,-3.34
2023-02-26T14:13:54.651Z,-3.26
2023-02-26T14:16:40.590Z,-3.34
2023-02-26T14:19:26.629Z,-3.37
2023-02-26T14:22:12.537Z,-3.23
2023-02-26T14:24:58.475Z,-3.28
2023-02-26T14:27:44.389Z,-3.21
2023-02-26T14:30:30.820Z,-3.19
2023-02-26T14:33:16.926Z,-3.29
2023-02-26T14:36:02.995Z,-3.35
2023-02-26T14:38:48.828Z,-3.39
2023-02-26T14:41:34.635Z,-3.44
2023-02-26T14:44:20.557Z,-3.53
2023-02-26T14:47:06.406Z,-3.53
2023-02-26T14:49:52.315Z,-3.46
2023-02-26T14:52:38.322Z,-3.65
2023-02-26T14:55:24.195Z,-3.66
2023-02-26T14:58:10.162Z,-3.62
2023-02-26T15:00:56.041Z,-3.60
2023-02-26T15:03:41.991Z,-3.48
2023-02-26T15:06:27.979Z,-3.69
2023-02-26T15:09:13.790Z,-3.55
2023-02-26T15:12:01.104Z,-3.51
2023-02-26T15:14:47.706Z,-3.46
2023-02-26T15:17:33.584Z,-3.68
2023-02-26T15:20:20.505Z,-3.48
2023-02-26T15:23:06.457Z,-3.68
2023-02-26T15:25:52.223Z,-3.69
2023-02-26T15:28:38.179Z,-3.52
2023-02-26T15:31:24.079Z,-3.49
2023-02-26T15:34:10.344Z,-3.56
2023-02-26T15:36:56.223Z,-3.45
2023-02-26T15:39:42.078Z,-3.47
2023-02-26T15:42:28.086Z,-3.48
2023-02-26T15:45:14.055Z,-3.39
2023-02-26T15:47:59.875Z,-3.50
2023-02-26T15:50:48.919Z,-3.45
2023-02-26T15:53:34.919Z,-3.47
2023-02-26T15:56:20.758Z,-3.52
2023-02-26T15:59:06.629Z,-3.30
2023-02-26T16:01:52.577Z,-3.34
2023-02-26T16:04:38.408Z,-3.42
2023-02-26T16:07:24.391Z,-3.35
2023-02-26T16:10:10.191Z,-3.35
2023-02-26T16:12:56.108Z,-3.36
2023-02-26T16:15:42.251Z,-3.44
2023-02-26T16:18:28.047Z,-3.29
2023-02-26T16:21:13.941Z,-3.36
2023-02-26T16:23:59.706Z,-3.43
2023-02-26T16:26:45.620Z,-3.33
2023-02-26T16:29:31.534Z,-3.36
2023-02-26T16:32:17.403Z,-3.46
2023-02-26T16:35:03.452Z,-3.52
2023-02-26T16:37:49.449Z,-3.51
2023-02-26T16:40:35.361Z,-3.73
2023-02-26T16:43:21.321Z,-3.58
2023-02-26T16:46:07.132Z,-3.83
2023-02-26T16:48:53.129Z,-3.84
2023-02-26T16:51:39.583Z,-3.93
2023-02-26T16:54:26.013Z,-3.92
2023-02-26T16:57:11.976Z,-4.03
2023-02-26T16:59:57.942Z,-4.14
2023-02-26T17:02:43.827Z,-4.09
2023-02-26T17:05:29.892Z,-4.21
2023-02-26T17:08:15.752Z,-4.17
2023-02-26T17:11:02.075Z,-4.13
2023-02-26T17:13:47.965Z,-4.06
2023-02-26T17:16:33.755Z,-3.95
2023-02-26T17:19:20.220Z,-3.92
2023-02-26T17:22:06.105Z,-3.92
2023-02-26T17:24:51.989Z,-3.89
2023-02-26T17:27:37.770Z,-3.84
2023-02-26T17:30:23.613Z,-3.85
2023-02-26T17:33:09.551Z,-3.70
2023-02-26T17:35:55.479Z,-3.62
2023-02-26T17:38:41.226Z,-3.79
2023-02-26T17:41:27.359Z,-3.69
2023-02-26T17:44:13.500Z,-3.66
2023-02-26T17:46:59.286Z,-3.69
2023-02-26T17:49:45.296Z,-3.60
2023-02-26T17:52:31.333Z,-3.69
2023-02-26T17:55:17.204Z,-3.68
2023-02-26T17:58:03.329Z,-3.67
2023-02-26T18:00:49.089Z,-3.62
2023-02-26T18:03:35.555Z,-3.71
2023-02-26T18:06:21.502Z,-3.57
2023-02-26T18:09:07.441Z,-3.57
2023-02-26T18:11:53.336Z,-3.61
2023-02-26T18:14:39.284Z,-3.66
2023-02-26T18:17:25.134Z,-3.64
2023-02-26T18:20:11.202Z,-3.60
2023-02-26T18:22:57.033Z,-3.69
2023-02-26T18:25:42.893Z,-3.60
2023-02-26T18:28:28.916Z,-3.65
2023-02-26T18:31:14.641Z,-3.61
2023-02-26T18:34:00.469Z,-3.51
2023-02-26T18:36:46.274Z,-3.42
2023-02-26T18:39:32.148Z,-3.40
2023-02-26T18:42:18.156Z,-3.48
2023-02-26T18:45:04.015Z,-3.43
2023-02-26T18:47:50.027Z,-3.35
2023-02-26T18:50:35.977Z,-3.46
2023-02-26T18:53:21.970Z,-3.44
2023-02-26T18:56:08.037Z,-3.53
2023-02-26T18:58:53.842Z,-3.74
2023-02-26T19:01:39.797Z,-3.63
2023-02-26T19:04:25.848Z,-3.77
2023-02-26T19:07:11.686Z,-3.72
2023-02-26T19:09:57.518Z,-3.79
2023-02-26T19:12:43.341Z,-3.78
2023-02-26T19:15:29.180Z,-3.77
2023-02-26T19:18:15.211Z,-3.79
2023-02-26T19:21:01.151Z,-3.81
2023-02-26T19:23:47.067Z,-3.75
2023-02-26T19:26:32.880Z,-3.69
2023-02-26T19:29:18.698Z,-3.72
2023-02-26T19:32:04.778Z,-3.70
2023-02-26T19:34:51.268Z,-3.70
2023-02-26T19:37:37.235Z,-3.60
2023-02-26T19:40:23.187Z,-3.63
2023-02-26T19:43:09.073Z,-3.63
2023-02-26T19:45:55.018Z,-3.60
2023-02-26T19:48:40.894Z,-3.59
2023-02-26T19:51:27.192Z,-3.64
2023-02-26T19:54:13.319Z,-3.58
2023-02-26T19:56:59.054Z,-3.67
2023-02-26T19:59:44.929Z,-3.63
2023-02-26T20:02:30.947Z,-3.60
2023-02-26T20:05:16.788Z,-3.52
2023-02-26T20:08:02.725Z,-3.53
2023-02-26T20:10:48.750Z,-3.55
2023-02-26T20:13:34.758Z,-3.49
2023-02-26T20:16:20.768Z,-3.53
2023-02-26T20:19:06.585Z,-3.64
2023-02-26T20:21:52.585Z,-3.65
2023-02-26T20:24:38.574Z,-3.64
2023-02-26T20:27:24.386Z,-3.70
2023-02-26T20:30:10.396Z,-3.62
2023-02-26T20:32:56.353Z,-3.70
2023-02-26T20:35:42.579Z,-3.72
2023-02-26T20:38:28.537Z,-3.73
2023-02-26T20:41:14.306Z,-3.63
2023-02-26T20:44:00.236Z,-3.72
2023-02-26T20:46:46.251Z,-3.80
2023-02-26T20:49:32.238Z,-3.90
2023-02-26T20:52:18.133Z,-3.97
2023-02-26T20:55:03.976Z,-3.95
2023-02-26T20:57:49.932Z,-3.99
2023-02-26T21:00:36.229Z,-4.17
2023-02-26T21:03:22.488Z,-4.14
2023-02-26T21:06:08.723Z,-4.17
2023-02-26T21:08:54.642Z,-4.24
2023-02-26T21:11:40.445Z,-4.33
2023-02-26T21:14:26.377Z,-4.33
2023-02-26T21:17:12.265Z,-4.28
2023-02-26T21:19:58.242Z,-4.35
2023-02-26T21:22:44.217Z,-4.34
2023-02-26T21:25:30.029Z,-4.29
2023-02-26T21:28:15.836Z,-4.24
2023-02-26T21:31:01.795Z,-4.19
2023-02-26T21:33:47.639Z,-4.23
2023-02-26T21:36:33.659Z,-4.38
2023-02-26T21:39:19.490Z,-4.32
2023-02-26T21:42:05.418Z,-4.27
2023-02-26T21:44:51.282Z,-4.18
2023-02-26T21:47:36.993Z,-4.20
2023-02-26T21:50:22.889Z,-4.14
2023-02-26T21:53:08.798Z,-4.23
2023-02-26T21:55:54.583Z,-4.16
2023-02-26T21:58:40.411Z,-4.11
2023-02-26T22:01:26.571Z,-4.12
2023-02-26T22:04:12.534Z,-4.16
2023-02-26T22:06:58.482Z,-4.14
2023-02-26T22:09:46.231Z,-4.01
2023-02-26T22:12:33.595Z,-4.03
2023-02-26T22:15:19.678Z,-4.13
2023-02-26T22:18:05.592Z,-3.93
2023-02-26T22:20:51.437Z,-4.01
2023-02-26T22:23:37.304Z,-4.01
2023-02-26T22:26:23.141Z,-4.02
2023-02-26T22:29:09.074Z,-3.93
2023-02-26T22:31:54.973Z,-3.87
2023-02-26T22:34:40.740Z,-3.84
2023-02-26T22:37:26.727Z,-3.81
2023-02-26T22:40:12.585Z,-3.92
2023-02-26T22:42:58.566Z,-3.93
2023-02-26T22:45:44.537Z,-3.72
2023-02-26T22:48:30.490Z,-4.03
2023-02-26T22:51:16.417Z,-3.93
2023-02-26T22:54:02.290Z,-3.85
2023-02-26T22:56:48.237Z,-3.94
2023-02-26T22:59:34.162Z,-3.93
2023-02-26T23:02:20.070Z,-3.90
2023-02-26T23:05:05.927Z,-3.96
2023-02-26T23:07:51.854Z,-3.97
2023-02-26T23:10:37.761Z,-3.87
2023-02-26T23:13:23.681Z,-3.89
2023-02-26T23:16:09.639Z,-3.92
2023-02-26T23:18:55.526Z,-3.87
2023-02-26T23:21:41.610Z,-3.97
2023-02-26T23:24:27.540Z,-3.93
2023-02-26T23:27:13.491Z,-3.96
2023-02-26T23:29:59.233Z,-3.88
2023-02-26T23:32:45.267Z,-3.84
2023-02-26T23:35:31.034Z,-3.87
2023-02-26T23:38:16.878Z,-3.90
2023-02-26T23:41:02.871Z,-3.85
2023-02-26T23:43:48.797Z,-3.84
2023-02-26T23:46:34.709Z,-3.87
2023-02-26T23:49:20.725Z,-3.86
2023-02-26T23:52:06.627Z,-3.89
2023-02-26T23:54:52.555Z,-3.84
2023-02-26T23:57:38.482Z,-3.92
